createdAt,value
2022-10-15T00:01:32.987Z,67.86
2022-10-15T00:04:37.787Z,67.77
2022-10-15T00:07:44.285Z,67.49
2022-10-15T00:10:49.752Z,67.59
2022-10-15T00:13:55.668Z,67.68
2022-10-15T00:17:01.946Z,67.64
2022-10-15T00:20:09.480Z,67.67
2022-10-15T00:23:14.929Z,68.21
2022-10-15T00:26:32.765Z,68.57
2022-10-15T00:29:39.498Z,68.58
2022-10-15T00:32:38.309Z,68.89
2022-10-15T00:35:43.375Z,69.05
2022-10-15T00:38:48.297Z,69.23
2022-10-15T00:41:59.419Z,68.91
2022-10-15T00:45:11.276Z,69.45
2022-10-15T00:48:17.167Z,69.70
2022-10-15T00:51:24.082Z,69.89
2022-10-15T00:54:23.353Z,69.41
2022-10-15T00:57:29.076Z,69.18
2022-10-15T01:00:35.299Z,68.86
2022-10-15T01:03:42.770Z,69.83
2022-10-15T01:06:49.321Z,69.75
2022-10-15T01:09:55.021Z,69.18
2022-10-15T01:13:42.331Z,69.10
2022-10-15T01:17:06.985Z,69.07
2022-10-15T01:21:01.079Z,69.58
2022-10-15T01:24:35.738Z,70.08
2022-10-15T01:27:55.151Z,70.00
2022-10-15T01:31:21.743Z,70.35
2022-10-15T01:34:40.631Z,70.12
2022-10-15T01:38:09.270Z,70.58
2022-10-15T01:41:19.694Z,70.90
2022-10-15T01:44:39.289Z,71.08
2022-10-15T01:48:02.903Z,71.34
2022-10-15T01:51:10.045Z,71.65
2022-10-15T01:54:15.865Z,72.03
2022-10-15T01:57:23.048Z,71.83
2022-10-15T02:00:28.962Z,71.93
2022-10-15T02:03:34.504Z,72.38
2022-10-15T02:06:49.497Z,72.97
2022-10-15T02:10:09.741Z,73.51
2022-10-15T02:13:28.086Z,74.04
2022-10-15T02:17:01.409Z,74.35
2022-10-15T02:20:27.193Z,74.65
2022-10-15T02:23:38.873Z,75.15
2022-10-15T02:26:45.139Z,76.14
2022-10-15T02:29:51.452Z,75.86
2022-10-15T02:33:00.529Z,76.00
2022-10-15T02:36:05.167Z,76.65
2022-10-15T02:39:11.733Z,76.59
2022-10-15T02:42:17.772Z,76.83
2022-10-15T02:45:24.183Z,77.88
2022-10-15T02:48:31.081Z,77.87
2022-10-15T02:51:36.017Z,78.59
2022-10-15T02:54:41.493Z,78.66
2022-10-15T02:57:48.720Z,78.54
2022-10-15T03:00:53.412Z,77.49
2022-10-15T03:04:00.864Z,77.91
2022-10-15T03:07:08.228Z,78.30
2022-10-15T03:10:14.773Z,79.05
2022-10-15T03:13:21.390Z,78.95
2022-10-15T03:16:27.977Z,78.67
2022-10-15T03:19:34.668Z,78.51
2022-10-15T03:22:40.837Z,78.71
2022-10-15T03:25:47.603Z,78.54
2022-10-15T03:28:52.867Z,78.82
2022-10-15T03:32:07.108Z,78.73
2022-10-15T03:35:12.885Z,78.22
2022-10-15T03:38:18.709Z,78.70
2022-10-15T03:41:25.234Z,78.26
2022-10-15T03:44:29.886Z,78.46
2022-10-15T03:47:41.041Z,78.81
2022-10-15T03:50:45.923Z,77.91
2022-10-15T03:53:51.670Z,78.30
2022-10-15T03:56:50.780Z,77.63
2022-10-15T03:59:59.206Z,78.32
2022-10-15T04:03:06.766Z,78.12
2022-10-15T04:06:13.592Z,78.04
2022-10-15T04:09:20.363Z,77.80
2022-10-15T04:12:28.629Z,78.41
2022-10-15T04:15:35.119Z,78.75
2022-10-15T04:18:42.718Z,79.08
2022-10-15T04:21:48.571Z,79.36
2022-10-15T04:24:56.589Z,78.60
2022-10-15T04:27:55.988Z,78.51
2022-10-15T04:31:02.754Z,78.32
2022-10-15T04:34:08.825Z,78.24
2022-10-15T04:37:13.604Z,78.29
2022-10-15T04:40:19.473Z,78.45
2022-10-15T04:43:25.015Z,78.05
2022-10-15T04:46:33.204Z,78.98
2022-10-15T04:49:43.082Z,78.17
2022-10-15T04:53:07.209Z,77.72
2022-10-15T04:56:23.845Z,77.43
2022-10-15T04:59:29.560Z,77.52
2022-10-15T05:02:57.452Z,77.35
2022-10-15T05:06:05.715Z,78.49
2022-10-15T05:09:14.674Z,78.70
2022-10-15T05:12:22.480Z,78.24
2022-10-15T05:15:30.746Z,77.81
2022-10-15T05:18:38.355Z,77.37
2022-10-15T05:21:44.739Z,77.12
2022-10-15T05:24:53.188Z,76.68
2022-10-15T05:28:03.191Z,76.18
2022-10-15T05:31:10.986Z,76.94
2022-10-15T05:34:22.133Z,77.03
2022-10-15T05:37:38.844Z,76.94
2022-10-15T05:40:45.617Z,76.14
2022-10-15T05:43:53.760Z,76.05
2022-10-15T05:47:01.788Z,75.87
2022-10-15T05:50:11.025Z,74.90
2022-10-15T05:53:18.658Z,74.11
2022-10-15T05:56:28.278Z,74.17
2022-10-15T05:59:34.746Z,73.74
2022-10-15T06:02:41.882Z,73.17
2022-10-15T06:05:47.953Z,72.29
2022-10-15T06:08:54.220Z,70.73
2022-10-15T06:12:01.120Z,69.82
2022-10-15T06:15:07.124Z,68.68
2022-10-15T06:18:12.693Z,66.71
2022-10-15T06:21:20.574Z,65.68
2022-10-15T06:24:26.287Z,65.48
2022-10-15T06:27:44.494Z,64.13
2022-10-15T06:30:52.143Z,63.68
2022-10-15T06:34:01.445Z,63.20
2022-10-15T06:37:07.371Z,63.90
2022-10-15T06:40:13.289Z,62.96
2022-10-15T06:43:21.961Z,62.36
2022-10-15T06:46:28.093Z,62.02
2022-10-15T06:49:34.568Z,61.35
2022-10-15T06:52:41.420Z,60.55
2022-10-15T06:55:46.801Z,59.60
2022-10-15T06:58:52.511Z,59.26
2022-10-15T07:01:58.084Z,59.20
2022-10-15T07:05:04.240Z,58.16
2022-10-15T07:08:11.025Z,57.07
2022-10-15T07:11:22.370Z,56.79
2022-10-15T07:14:28.324Z,56.19
2022-10-15T07:17:35.163Z,56.40
2022-10-15T07:20:41.654Z,55.92
2022-10-15T07:23:48.398Z,54.47
2022-10-15T07:26:54.710Z,54.20
2022-10-15T07:30:01.226Z,53.95
2022-10-15T07:33:07.416Z,52.47
2022-10-15T07:36:16.865Z,51.85
2022-10-15T07:39:26.271Z,48.85
2022-10-15T07:42:32.353Z,48.90
2022-10-15T07:45:38.075Z,49.10
2022-10-15T07:48:44.078Z,48.58
2022-10-15T07:51:49.922Z,48.66
2022-10-15T07:54:55.825Z,48.84
2022-10-15T07:58:03.002Z,47.86
2022-10-15T08:01:09.617Z,47.48
2022-10-15T08:04:15.481Z,47.94
2022-10-15T08:07:20.977Z,47.42
2022-10-15T08:10:28.130Z,46.63
2022-10-15T08:13:27.895Z,45.66
2022-10-15T08:16:22.276Z,45.42
2022-10-15T08:19:23.854Z,43.39
2022-10-15T08:22:29.512Z,43.48
2022-10-15T08:25:35.006Z,42.18
2022-10-15T08:28:41.236Z,42.58
2022-10-15T08:31:47.036Z,42.63
2022-10-15T08:34:54.991Z,42.13
2022-10-15T08:38:03.069Z,42.17
2022-10-15T08:41:13.508Z,41.60
2022-10-15T08:44:19.812Z,42.39
2022-10-15T08:47:39.537Z,42.91
2022-10-15T08:51:18.038Z,42.32
2022-10-15T08:54:28.516Z,42.25
2022-10-15T08:57:42.114Z,41.65
2022-10-15T09:01:07.520Z,41.70
2022-10-15T09:04:50.317Z,41.49
2022-10-15T09:08:02.030Z,41.43
2022-10-15T09:11:12.126Z,40.95
2022-10-15T09:14:17.144Z,40.40
2022-10-15T09:17:39.663Z,40.82
2022-10-15T09:20:49.105Z,40.51
2022-10-15T09:23:55.176Z,41.22
2022-10-15T09:27:31.890Z,40.42
2022-10-15T09:30:52.148Z,40.65
2022-10-15T09:34:08.782Z,41.64
2022-10-15T09:37:17.444Z,42.26
2022-10-15T09:40:50.114Z,42.81
2022-10-15T09:43:57.832Z,42.12
2022-10-15T09:47:05.421Z,41.92
2022-10-15T09:50:10.994Z,40.87
2022-10-15T09:53:52.456Z,40.72
2022-10-15T09:57:08.285Z,40.52
2022-10-15T10:00:15.676Z,39.08
2022-10-15T10:03:25.865Z,39.14
2022-10-15T10:06:31.894Z,39.46
2022-10-15T10:09:54.121Z,39.42
2022-10-15T10:13:00.901Z,40.10
2022-10-15T10:16:09.231Z,39.74
2022-10-15T10:19:28.359Z,39.16
2022-10-15T10:22:34.897Z,39.28
2022-10-15T10:25:48.727Z,38.49
2022-10-15T10:29:22.168Z,38.85
2022-10-15T10:32:35.372Z,39.20
2022-10-15T10:35:44.378Z,39.88
2022-10-15T10:38:52.692Z,40.21
2022-10-15T10:42:08.707Z,39.08
2022-10-15T10:45:38.630Z,39.32
2022-10-15T10:49:05.242Z,39.08
2022-10-15T10:52:11.421Z,40.18
2022-10-15T10:55:28.244Z,39.75
2022-10-15T10:58:36.666Z,40.18
2022-10-15T11:01:41.422Z,40.38
2022-10-15T11:04:49.083Z,40.05
2022-10-15T11:08:09.982Z,39.72
2022-10-15T11:11:36.374Z,39.78
2022-10-15T11:15:01.204Z,39.84
2022-10-15T11:18:37.986Z,40.19
2022-10-15T11:22:09.204Z,40.23
2022-10-15T11:25:35.657Z,39.01
2022-10-15T11:29:07.550Z,38.73
2022-10-15T11:32:26.060Z,38.22
2022-10-15T11:35:53.257Z,38.72
2022-10-15T11:39:21.013Z,38.71
2022-10-15T11:42:42.268Z,38.48
2022-10-15T11:46:13.096Z,38.50
2022-10-15T11:49:52.307Z,38.74
2022-10-15T11:53:13.538Z,38.35
2022-10-15T11:56:28.265Z,38.26
2022-10-15T12:00:00.798Z,38.58
2022-10-15T12:03:10.585Z,38.12
2022-10-15T12:06:31.189Z,38.40
2022-10-15T12:09:45.644Z,38.93
2022-10-15T12:13:21.742Z,39.23
2022-10-15T12:17:11.619Z,38.91
2022-10-15T12:20:34.917Z,39.05
2022-10-15T12:23:56.450Z,39.10
2022-10-15T12:27:01.833Z,39.47
2022-10-15T12:30:18.699Z,39.87
2022-10-15T12:33:11.151Z,42.95
2022-10-15T12:36:37.683Z,42.00
2022-10-15T12:39:58.742Z,41.24
2022-10-15T12:42:54.457Z,41.39
2022-10-15T12:46:13.080Z,41.75
2022-10-15T12:49:38.894Z,41.64
2022-10-15T12:53:43.048Z,41.42
2022-10-15T12:56:54.681Z,41.77
2022-10-15T13:00:05.482Z,42.13
2022-10-15T13:03:11.831Z,41.97
2022-10-15T13:06:41.621Z,42.22
2022-10-15T13:09:49.397Z,41.86
2022-10-15T13:12:57.400Z,42.03
2022-10-15T13:16:13.842Z,42.23
2022-10-15T13:19:19.385Z,42.08
2022-10-15T13:22:43.013Z,42.00
2022-10-15T13:25:49.561Z,42.06
2022-10-15T13:28:50.662Z,42.03
2022-10-15T13:31:56.832Z,42.23
2022-10-15T13:35:04.350Z,42.18
2022-10-15T13:38:12.762Z,41.97
2022-10-15T13:41:18.564Z,41.93
2022-10-15T13:44:36.596Z,42.47
2022-10-15T13:47:47.685Z,42.35
2022-10-15T13:50:54.448Z,42.60
2022-10-15T13:53:59.666Z,42.27
2022-10-15T13:57:05.450Z,42.25
2022-10-15T14:00:12.979Z,41.97
2022-10-15T14:03:35.604Z,42.00
2022-10-15T14:06:55.973Z,42.08
2022-10-15T14:10:00.573Z,42.02
2022-10-15T14:13:06.114Z,41.72
2022-10-15T14:16:35.223Z,41.88
2022-10-15T14:19:40.246Z,42.28
2022-10-15T14:22:46.743Z,42.72
2022-10-15T14:25:52.839Z,42.98
2022-10-15T14:29:03.206Z,42.63
2022-10-15T14:32:09.201Z,42.82
2022-10-15T14:35:16.831Z,43.14
2022-10-15T14:38:26.426Z,43.17
2022-10-15T14:41:42.974Z,43.42
2022-10-15T14:45:02.871Z,43.48
2022-10-15T14:48:17.453Z,43.66
2022-10-15T14:51:31.355Z,43.75
2022-10-15T14:54:40.189Z,44.05
2022-10-15T14:57:49.609Z,44.50
2022-10-15T15:01:00.404Z,44.68
2022-10-15T15:04:10.204Z,45.01
2022-10-15T15:07:16.685Z,45.28
2022-10-15T15:10:23.791Z,45.57
2022-10-15T15:13:34.092Z,45.80
2022-10-15T15:16:39.633Z,46.33
2022-10-15T15:19:44.313Z,46.54
2022-10-15T15:22:49.746Z,46.79
2022-10-15T15:25:58.071Z,47.13
2022-10-15T15:29:04.777Z,47.44
2022-10-15T15:32:10.642Z,47.68
2022-10-15T15:35:16.468Z,47.91
2022-10-15T15:38:22.035Z,48.20
2022-10-15T15:41:36.004Z,48.86
2022-10-15T15:44:42.175Z,49.24
2022-10-15T15:47:47.754Z,49.91
2022-10-15T15:50:53.597Z,50.26
2022-10-15T15:54:00.275Z,50.69
2022-10-15T15:57:07.732Z,51.08
2022-10-15T16:00:13.425Z,51.02
2022-10-15T16:03:19.427Z,51.28
2022-10-15T16:06:26.234Z,51.85
2022-10-15T16:09:33.301Z,51.95
2022-10-15T16:12:40.801Z,52.40
2022-10-15T16:15:47.695Z,52.60
2022-10-15T16:18:53.885Z,52.81
2022-10-15T16:22:00.704Z,53.48
2022-10-15T16:25:07.458Z,53.88
2022-10-15T16:28:14.102Z,54.43
2022-10-15T16:31:41.922Z,54.75
2022-10-15T16:34:48.304Z,55.43
2022-10-15T16:37:53.882Z,55.76
2022-10-15T16:41:01.350Z,55.92
2022-10-15T16:44:07.419Z,56.30
2022-10-15T16:47:15.638Z,56.77
2022-10-15T16:50:22.903Z,57.33
2022-10-15T16:53:29.803Z,57.43
2022-10-15T16:56:40.986Z,57.95
2022-10-15T16:59:47.350Z,57.92
2022-10-15T17:02:54.873Z,58.14
2022-10-15T17:06:00.585Z,58.23
2022-10-15T17:09:12.733Z,58.25
2022-10-15T17:12:17.979Z,57.83
2022-10-15T17:15:23.510Z,57.98
2022-10-15T17:18:28.855Z,58.55
2022-10-15T17:21:36.340Z,58.12
2022-10-15T17:24:41.725Z,58.01
2022-10-15T17:27:42.695Z,58.34
2022-10-15T17:30:28.942Z,58.16
2022-10-15T17:33:21.874Z,58.17
2022-10-15T17:36:26.297Z,58.41
2022-10-15T17:39:35.094Z,58.58
2022-10-15T17:42:41.349Z,59.06
2022-10-15T17:45:40.548Z,59.82
2022-10-15T17:48:47.186Z,59.68
2022-10-15T17:51:52.922Z,59.86
2022-10-15T17:54:58.675Z,60.07
2022-10-15T17:58:04.304Z,59.86
2022-10-15T18:01:12.706Z,59.88
2022-10-15T18:04:19.271Z,59.92
2022-10-15T18:07:27.113Z,59.97
2022-10-15T18:10:33.272Z,59.81
2022-10-15T18:13:39.491Z,59.51
2022-10-15T18:16:46.724Z,59.32
2022-10-15T18:19:53.357Z,59.77
2022-10-15T18:22:58.907Z,60.16
2022-10-15T18:26:06.547Z,60.21
2022-10-15T18:29:12.326Z,60.36
2022-10-15T18:32:20.157Z,60.41
2022-10-15T18:35:25.922Z,60.07
2022-10-15T18:38:32.628Z,59.83
2022-10-15T18:44:49.795Z,60.40
2022-10-15T18:47:49.580Z,60.34
2022-10-15T18:50:43.621Z,60.27
2022-10-15T18:53:50.289Z,60.42
2022-10-15T18:56:56.560Z,60.48
2022-10-15T19:00:02.974Z,60.52
2022-10-15T19:03:09.281Z,60.45
2022-10-15T19:06:15.536Z,60.68
2022-10-15T19:09:24.566Z,60.89
2022-10-15T19:12:23.802Z,61.21
2022-10-15T19:15:25.171Z,61.44
2022-10-15T19:18:31.931Z,61.49
2022-10-15T19:21:38.021Z,61.61
2022-10-15T19:24:43.448Z,62.11
2022-10-15T19:27:49.584Z,62.02
2022-10-15T19:30:56.000Z,61.99
2022-10-15T19:34:04.759Z,62.09
2022-10-15T19:37:10.909Z,62.53
2022-10-15T19:40:18.867Z,62.56
2022-10-15T19:43:25.717Z,62.84
2022-10-15T19:46:31.760Z,62.80
2022-10-15T19:49:30.076Z,62.90
2022-10-15T19:52:22.784Z,62.82
2022-10-15T19:55:28.973Z,62.47
2022-10-15T19:58:35.314Z,62.89
2022-10-15T20:01:35.315Z,63.46
2022-10-15T20:04:22.044Z,63.51
2022-10-15T20:07:14.131Z,63.60
2022-10-15T20:10:06.402Z,63.58
2022-10-15T20:13:11.805Z,63.43
2022-10-15T20:16:24.841Z,63.93
2022-10-15T20:19:34.524Z,63.98
2022-10-15T20:22:40.910Z,63.90
2022-10-15T20:25:47.305Z,63.66
2022-10-15T20:28:58.894Z,63.49
2022-10-15T20:32:11.041Z,63.40
2022-10-15T20:35:10.875Z,63.19
2022-10-15T20:38:16.865Z,63.24
2022-10-15T20:41:28.666Z,63.47
2022-10-15T20:44:34.143Z,63.33
2022-10-15T20:47:39.574Z,63.40
2022-10-15T20:50:48.600Z,62.99
2022-10-15T20:53:54.953Z,62.39
2022-10-15T20:57:01.299Z,62.48
2022-10-15T21:00:06.890Z,62.50
2022-10-15T21:03:06.939Z,62.48
2022-10-15T21:06:14.862Z,62.87
2022-10-15T21:09:22.426Z,62.45
2022-10-15T21:12:28.512Z,62.31
2022-10-15T21:15:34.796Z,62.48
2022-10-15T21:18:41.750Z,62.52
2022-10-15T21:21:48.183Z,62.18
2022-10-15T21:24:54.763Z,62.38
2022-10-15T21:28:01.463Z,62.54
2022-10-15T21:31:07.983Z,62.91
2022-10-15T21:34:13.708Z,62.85
2022-10-15T21:37:20.153Z,63.12
2022-10-15T21:40:26.992Z,63.37
2022-10-15T21:43:33.151Z,63.68
2022-10-15T21:46:38.093Z,64.13
2022-10-15T21:49:43.407Z,64.50
2022-10-15T21:52:48.816Z,64.66
2022-10-15T21:55:54.336Z,64.73
2022-10-15T21:59:01.703Z,64.81
2022-10-15T22:02:07.616Z,64.96
2022-10-15T22:05:13.244Z,64.98
2022-10-15T22:08:19.558Z,64.78
2022-10-15T22:11:37.164Z,64.73
2022-10-15T22:14:43.683Z,64.73
2022-10-15T22:17:50.031Z,64.92
2022-10-15T22:20:55.951Z,65.27
2022-10-15T22:24:06.463Z,66.08
2022-10-15T22:27:12.640Z,66.38
2022-10-15T22:30:19.881Z,66.55
2022-10-15T22:33:25.776Z,66.75
2022-10-15T22:36:39.382Z,66.68
2022-10-15T22:39:46.437Z,66.48
2022-10-15T22:42:55.516Z,66.74
2022-10-15T22:46:01.167Z,66.99
2022-10-15T22:49:06.857Z,66.88
2022-10-15T22:52:14.003Z,66.97
2022-10-15T22:55:13.495Z,67.11
2022-10-15T22:57:59.772Z,67.24
2022-10-15T23:00:51.735Z,67.37
2022-10-15T23:03:45.370Z,67.45
2022-10-15T23:06:44.634Z,67.34
2022-10-15T23:09:51.252Z,67.48
2022-10-15T23:12:57.298Z,67.94
2022-10-15T23:16:02.615Z,68.20
2022-10-15T23:19:12.308Z,68.20
2022-10-15T23:22:18.969Z,68.23
2022-10-15T23:25:25.189Z,67.94
2022-10-15T23:28:32.018Z,67.74
2022-10-15T23:31:39.704Z,67.89
2022-10-15T23:34:45.341Z,67.95
2022-10-15T23:37:56.398Z,67.62
2022-10-15T23:41:02.587Z,67.59
2022-10-15T23:44:09.279Z,68.21
2022-10-15T23:47:15.416Z,68.10
2022-10-15T23:50:21.827Z,68.16
2022-10-15T23:53:27.726Z,68.14
2022-10-15T23:56:26.835Z,67.78
2022-10-15T23:59:33.096Z,67.73
